createdAt,value
2023-02-12T00:01:28.719Z,24.05
2023-02-12T00:03:56.635Z,25.08
2023-02-12T00:06:24.683Z,27.60
2023-02-12T00:08:53.249Z,26.20
2023-02-12T00:11:25.156Z,25.33
2023-02-12T00:13:53.005Z,25.08
2023-02-12T00:16:22.159Z,27.85
2023-02-12T00:18:51.728Z,28.30
2023-02-12T00:21:19.355Z,21.85
2023-02-12T00:23:46.770Z,27.67
2023-02-12T00:26:15.798Z,24.20
2023-02-12T00:28:43.204Z,30.08
2023-02-12T00:31:12.841Z,25.38
2023-02-12T00:33:40.767Z,23.52
2023-02-12T00:36:08.874Z,28.42
2023-02-12T00:38:36.287Z,21.77
2023-02-12T00:41:04.037Z,29.08
2023-02-12T00:43:31.490Z,23.33
2023-02-12T00:45:59.470Z,23.80
2023-02-12T00:48:27.083Z,23.38
2023-02-12T00:50:54.820Z,25.42
2023-02-12T00:53:22.249Z,22.00
2023-02-12T00:55:49.946Z,30.05
2023-02-12T00:58:19.020Z,23.02
2023-02-12T01:00:46.800Z,26.55
2023-02-12T01:03:14.309Z,20.95
2023-02-12T01:05:43.275Z,23.63
2023-02-12T01:08:14.506Z,24.45
2023-02-12T01:10:43.136Z,24.10
2023-02-12T01:13:14.014Z,22.75
2023-02-12T01:15:41.892Z,24.10
2023-02-12T01:18:09.271Z,25.45
2023-02-12T01:20:37.016Z,22.60
2023-02-12T01:23:04.340Z,26.42
2023-02-12T01:25:32.359Z,22.98
2023-02-12T01:27:59.858Z,24.73
2023-02-12T01:30:27.592Z,23.20
2023-02-12T01:32:57.139Z,28.30
2023-02-12T01:35:43.127Z,23.23
2023-02-12T01:38:28.840Z,23.17
2023-02-12T01:41:16.660Z,24.38
2023-02-12T01:44:08.090Z,22.17
2023-02-12T01:47:16.400Z,27.43
2023-02-12T01:49:57.125Z,23.10
2023-02-12T01:52:27.597Z,25.13
2023-02-12T01:54:57.237Z,25.35
2023-02-12T01:57:26.085Z,22.52
2023-02-12T01:59:54.668Z,20.95
2023-02-12T02:02:22.340Z,22.55
2023-02-12T02:04:51.731Z,20.70
2023-02-12T02:07:19.500Z,25.98
2023-02-12T02:09:46.996Z,22.52
2023-02-12T02:12:14.663Z,24.45
2023-02-12T02:14:42.501Z,31.63
2023-02-12T02:17:10.076Z,26.00
2023-02-12T02:19:37.395Z,26.00
2023-02-12T02:22:23.597Z,19.30
2023-02-12T02:25:05.176Z,28.42
2023-02-12T02:27:32.789Z,25.20
2023-02-12T02:30:18.320Z,18.30
2023-02-12T02:33:04.150Z,19.85
2023-02-12T02:35:37.305Z,26.75
2023-02-12T02:38:19.226Z,20.15
2023-02-12T02:40:52.417Z,26.17
2023-02-12T02:43:25.935Z,22.33
2023-02-12T02:45:57.359Z,23.23
2023-02-12T02:48:27.797Z,24.20
2023-02-12T02:50:57.384Z,21.35
2023-02-12T02:53:37.559Z,24.35
2023-02-12T02:56:07.550Z,15.98
2023-02-12T02:58:39.006Z,22.27
2023-02-12T03:01:09.778Z,22.30
2023-02-12T03:03:44.685Z,21.30
2023-02-12T03:06:22.977Z,25.48
2023-02-12T03:08:56.389Z,20.83
2023-02-12T03:11:25.658Z,17.80
2023-02-12T03:17:18.578Z,20.75
2023-02-12T03:19:57.085Z,20.45
2023-02-12T03:22:44.840Z,15.07
2023-02-12T03:25:17.094Z,16.42
2023-02-12T03:27:47.316Z,24.27
2023-02-12T03:30:15.265Z,20.38
2023-02-12T03:32:51.854Z,24.85
2023-02-12T03:35:32.214Z,23.75
2023-02-12T03:38:05.495Z,19.40
2023-02-12T03:40:34.900Z,23.92
2023-02-12T03:43:04.610Z,20.17
2023-02-12T03:45:47.553Z,22.48
2023-02-12T03:48:30.498Z,19.38
2023-02-12T03:51:11.656Z,16.38
2023-02-12T03:53:39.146Z,19.73
2023-02-12T03:56:15.452Z,17.08
2023-02-12T03:58:43.457Z,21.30
2023-02-12T04:01:12.397Z,14.90
2023-02-12T04:03:40.592Z,16.63
2023-02-12T04:06:23.527Z,18.05
2023-02-12T04:08:51.952Z,18.17
2023-02-12T04:11:28.975Z,19.58
2023-02-12T04:13:56.426Z,18.40
2023-02-12T04:16:33.193Z,22.40
2023-02-12T04:19:01.503Z,14.82
2023-02-12T04:21:31.924Z,23.77
2023-02-12T04:24:05.408Z,24.33
2023-02-12T04:26:35.871Z,14.90
2023-02-12T04:29:18.858Z,20.80
2023-02-12T04:31:50.474Z,21.88
2023-02-12T04:34:20.750Z,22.77
2023-02-12T04:37:00.238Z,17.95
2023-02-12T04:39:29.175Z,20.35
2023-02-12T04:42:01.345Z,26.67
2023-02-12T04:44:30.368Z,15.82
2023-02-12T04:46:58.266Z,26.08
2023-02-12T04:49:25.673Z,20.27
2023-02-12T04:51:53.435Z,12.45
2023-02-12T04:54:21.643Z,23.25
2023-02-12T04:56:49.584Z,20.15
2023-02-12T04:59:17.088Z,23.80
2023-02-12T05:01:44.922Z,22.58
2023-02-12T05:04:13.695Z,16.77
2023-02-12T05:06:42.118Z,24.15
2023-02-12T05:09:12.346Z,19.70
2023-02-12T05:11:40.092Z,18.20
2023-02-12T05:14:07.891Z,24.08
2023-02-12T05:16:35.626Z,29.30
2023-02-12T05:19:03.031Z,16.48
2023-02-12T05:21:30.797Z,26.23
2023-02-12T05:23:58.197Z,22.92
2023-02-12T05:26:25.834Z,21.13
2023-02-12T05:28:53.210Z,23.55
2023-02-12T05:31:21.604Z,22.90
2023-02-12T05:33:49.707Z,25.08
2023-02-12T05:36:18.817Z,23.00
2023-02-12T05:38:46.184Z,21.92
2023-02-12T05:41:15.280Z,23.70
2023-02-12T05:43:42.932Z,27.52
2023-02-12T05:46:11.102Z,25.30
2023-02-12T05:48:38.665Z,26.38
2023-02-12T05:51:17.281Z,25.40
2023-02-12T05:53:44.670Z,24.13
2023-02-12T05:56:12.546Z,25.95
2023-02-12T05:58:40.587Z,24.00
2023-02-12T06:01:13.595Z,29.02
2023-02-12T06:03:41.383Z,21.88
2023-02-12T06:06:09.094Z,19.42
2023-02-12T06:08:36.466Z,31.55
2023-02-12T06:11:05.712Z,16.98
2023-02-12T06:13:33.721Z,19.67
2023-02-12T06:16:01.820Z,21.33
2023-02-12T06:18:29.333Z,15.75
2023-02-12T06:20:57.215Z,18.38
2023-02-12T06:23:25.079Z,19.35
2023-02-12T06:25:57.783Z,24.13
2023-02-12T06:28:25.574Z,16.17
2023-02-12T06:30:53.390Z,18.80
2023-02-12T06:33:20.937Z,18.63
2023-02-12T06:35:48.630Z,27.33
2023-02-12T06:38:16.036Z,20.05
2023-02-12T06:40:43.844Z,22.75
2023-02-12T06:43:11.239Z,22.08
2023-02-12T06:45:39.068Z,19.30
2023-02-12T06:48:06.730Z,26.05
2023-02-12T06:50:34.464Z,20.75
2023-02-12T06:53:01.846Z,22.25
2023-02-12T06:55:29.568Z,21.27
2023-02-12T06:57:57.014Z,21.83
2023-02-12T07:00:24.795Z,19.52
2023-02-12T07:09:44.713Z,20.13
2023-02-12T07:12:12.127Z,23.42
2023-02-12T07:14:39.827Z,23.08
2023-02-12T07:17:07.252Z,18.58
2023-02-12T07:23:07.314Z,18.58
2023-02-12T07:25:34.968Z,13.38
2023-02-12T07:28:28.552Z,23.92
2023-02-12T07:30:56.357Z,22.92
2023-02-12T07:33:23.786Z,21.05
2023-02-12T07:35:51.511Z,22.27
2023-02-12T07:38:18.904Z,22.27
2023-02-12T07:40:46.692Z,26.67
2023-02-12T07:43:14.084Z,24.42
2023-02-12T07:45:41.958Z,20.60
2023-02-12T07:48:09.333Z,23.02
2023-02-12T07:50:36.994Z,25.85
2023-02-12T07:53:04.444Z,17.90
2023-02-12T07:55:32.199Z,20.85
2023-02-12T07:57:59.646Z,21.52
2023-02-12T08:00:27.317Z,20.73
2023-02-12T08:02:54.663Z,25.83
2023-02-12T08:05:22.426Z,22.58
2023-02-12T08:07:49.819Z,18.63
2023-02-12T08:10:17.648Z,17.98
2023-02-12T08:12:45.156Z,22.92
2023-02-12T08:15:12.889Z,24.17
2023-02-12T08:17:40.283Z,29.95
2023-02-12T08:20:08.227Z,22.23
2023-02-12T08:22:35.600Z,19.08
2023-02-12T08:25:03.317Z,21.52
2023-02-12T08:27:30.790Z,20.25
2023-02-12T08:29:58.477Z,20.50
2023-02-12T08:32:25.902Z,23.40
2023-02-12T08:34:53.623Z,23.88
2023-02-12T08:37:21.022Z,26.15
2023-02-12T08:39:48.822Z,21.13
2023-02-12T08:42:16.193Z,23.25
2023-02-12T08:44:43.900Z,18.33
2023-02-12T08:47:11.287Z,22.70
2023-02-12T08:49:39.022Z,19.38
2023-02-12T08:52:06.421Z,25.13
2023-02-12T08:54:34.257Z,18.63
2023-02-12T08:57:02.552Z,20.48
2023-02-12T08:59:30.661Z,19.55
2023-02-12T09:01:58.174Z,22.38
2023-02-12T09:04:27.063Z,23.73
2023-02-12T09:06:55.171Z,28.30
2023-02-12T09:09:23.250Z,17.45
2023-02-12T09:11:50.763Z,19.42
2023-02-12T09:14:19.024Z,22.55
2023-02-12T09:16:46.658Z,16.90
2023-02-12T09:19:14.664Z,25.33
2023-02-12T09:21:42.440Z,23.25
2023-02-12T09:24:10.394Z,22.52
2023-02-12T09:26:39.412Z,19.67
2023-02-12T09:29:07.195Z,18.60
2023-02-12T09:31:34.760Z,15.05
2023-02-12T09:34:03.917Z,17.92
2023-02-12T09:36:32.137Z,17.83
2023-02-12T09:39:00.094Z,18.75
2023-02-12T09:41:36.860Z,14.20
2023-02-12T09:44:09.091Z,17.45
2023-02-12T09:46:41.119Z,18.45
2023-02-12T09:49:10.637Z,16.77
2023-02-12T09:51:39.893Z,17.30
2023-02-12T09:54:10.851Z,18.85
2023-02-12T09:56:39.851Z,22.30
2023-02-12T09:59:08.752Z,19.02
2023-02-12T10:01:36.307Z,19.85
2023-02-12T10:04:05.191Z,24.02
2023-02-12T10:06:36.314Z,17.38
2023-02-12T10:09:22.635Z,26.58
2023-02-12T10:11:56.208Z,17.48
2023-02-12T10:14:26.804Z,24.50
2023-02-12T10:17:00.070Z,21.92
2023-02-12T10:19:33.833Z,17.52
2023-02-12T10:22:30.598Z,17.30
2023-02-12T10:24:58.187Z,18.55
2023-02-12T10:27:34.744Z,15.73
2023-02-12T10:30:04.050Z,17.63
2023-02-12T10:32:33.891Z,17.40
2023-02-12T10:35:01.900Z,18.30
2023-02-12T10:37:38.255Z,22.50
2023-02-12T10:40:18.019Z,17.63
2023-02-12T10:42:49.119Z,16.98
2023-02-12T10:45:25.721Z,22.27
2023-02-12T10:47:54.711Z,13.73
2023-02-12T10:50:45.408Z,19.75
2023-02-12T10:53:33.043Z,15.85
2023-02-12T10:56:06.561Z,13.57
2023-02-12T10:58:33.970Z,11.38
2023-02-12T11:01:02.398Z,13.45
2023-02-12T11:03:31.073Z,16.30
2023-02-12T11:06:09.388Z,13.23
2023-02-12T11:08:37.501Z,18.13
2023-02-12T11:11:07.680Z,11.90
2023-02-12T11:13:35.645Z,14.75
2023-02-12T11:16:03.814Z,10.07
2023-02-12T11:18:32.246Z,12.95
2023-02-12T11:21:02.658Z,10.70
2023-02-12T11:23:31.322Z,12.07
2023-02-12T11:26:00.831Z,13.27
2023-02-12T11:28:29.129Z,22.02
2023-02-12T11:30:57.090Z,17.60
2023-02-12T11:33:26.259Z,14.10
2023-02-12T11:35:58.274Z,16.17
2023-02-12T11:38:36.576Z,12.90
2023-02-12T11:41:08.701Z,19.90
2023-02-12T11:43:36.729Z,11.30
2023-02-12T11:46:05.053Z,15.65
2023-02-12T11:48:33.899Z,12.65
2023-02-12T11:51:03.112Z,20.23
2023-02-12T11:53:35.087Z,17.48
2023-02-12T11:56:05.342Z,11.70
2023-02-12T11:58:33.086Z,10.65
2023-02-12T12:01:03.773Z,12.38
2023-02-12T12:03:43.124Z,16.25
2023-02-12T12:06:19.840Z,13.13
2023-02-12T12:08:47.267Z,13.27
2023-02-12T12:11:18.034Z,15.75
2023-02-12T12:13:51.630Z,9.48
2023-02-12T12:16:29.358Z,10.15
2023-02-12T12:18:58.464Z,11.05
2023-02-12T12:21:45.434Z,12.02
2023-02-12T12:24:15.667Z,14.38
2023-02-12T12:26:47.502Z,12.65
2023-02-12T12:29:41.160Z,18.25
2023-02-12T12:32:12.066Z,12.95
2023-02-12T12:34:39.491Z,9.52
2023-02-12T12:37:13.058Z,16.35
2023-02-12T12:40:04.655Z,15.20
2023-02-12T12:42:32.465Z,12.95
2023-02-12T12:45:18.499Z,11.52
2023-02-12T12:47:49.099Z,9.48
2023-02-12T12:50:19.251Z,9.48
2023-02-12T12:52:46.963Z,9.52
2023-02-12T12:55:14.390Z,10.63
2023-02-12T12:57:42.219Z,8.63
2023-02-12T13:00:27.585Z,9.45
2023-02-12T13:02:58.421Z,9.38
2023-02-12T13:05:34.631Z,6.65
2023-02-12T13:08:21.790Z,9.07
2023-02-12T13:10:49.293Z,8.77
2023-02-12T13:13:22.819Z,6.15
2023-02-12T13:16:01.310Z,8.70
2023-02-12T13:18:35.321Z,10.85
2023-02-12T13:21:14.656Z,7.07
2023-02-12T13:24:15.038Z,5.72
2023-02-12T13:26:47.202Z,13.00
2023-02-12T13:29:23.001Z,9.13
2023-02-12T13:31:59.532Z,8.57
2023-02-12T13:34:28.987Z,9.23
2023-02-12T13:36:57.274Z,13.38
2023-02-12T13:39:34.340Z,13.90
2023-02-12T13:42:07.747Z,9.40
2023-02-12T13:44:37.940Z,7.88
2023-02-12T13:47:28.446Z,11.60
2023-02-12T13:50:15.122Z,16.02
2023-02-12T13:52:54.633Z,9.07
2023-02-12T13:55:25.973Z,9.75
2023-02-12T13:58:12.025Z,10.23
2023-02-12T14:00:51.692Z,8.75
2023-02-12T14:03:28.814Z,7.63
2023-02-12T14:06:13.738Z,11.95
2023-02-12T14:08:42.469Z,5.68
2023-02-12T14:11:14.369Z,6.80
2023-02-12T14:13:47.604Z,9.07
2023-02-12T14:16:35.646Z,5.97
2023-02-12T14:19:21.915Z,8.48
2023-02-12T14:21:49.888Z,8.05
2023-02-12T14:24:36.008Z,6.50
2023-02-12T14:27:17.370Z,6.32
2023-02-12T14:30:22.048Z,7.97
2023-02-12T14:32:49.972Z,5.20
2023-02-12T14:35:26.640Z,11.48
2023-02-12T14:37:55.642Z,9.85
2023-02-12T14:40:35.147Z,11.02
2023-02-12T14:43:04.283Z,6.85
2023-02-12T14:45:35.613Z,9.40
2023-02-12T14:48:04.639Z,9.45
2023-02-12T14:50:40.881Z,8.43
2023-02-12T14:53:28.735Z,8.75
2023-02-12T14:55:56.728Z,9.52
2023-02-12T14:58:25.767Z,9.93
2023-02-12T15:00:56.165Z,8.50
2023-02-12T15:03:27.327Z,10.32
2023-02-12T15:05:55.076Z,9.43
2023-02-12T15:08:36.112Z,9.98
2023-02-12T15:11:14.446Z,10.25
2023-02-12T15:13:57.065Z,11.07
2023-02-12T15:16:32.174Z,6.93
2023-02-12T15:19:02.503Z,5.88
2023-02-12T15:21:31.268Z,8.25
2023-02-12T15:24:09.020Z,8.30
2023-02-12T15:26:41.425Z,6.88
2023-02-12T15:29:19.059Z,9.00
2023-02-12T15:31:50.489Z,9.52
2023-02-12T15:34:20.387Z,7.50
2023-02-12T15:36:47.850Z,11.07
2023-02-12T15:39:18.711Z,6.65
2023-02-12T15:41:46.308Z,8.75
2023-02-12T15:44:30.604Z,9.38
2023-02-12T15:47:11.770Z,13.60
2023-02-12T15:49:40.843Z,9.30
2023-02-12T15:52:19.080Z,7.70
2023-02-12T15:54:48.585Z,12.48
2023-02-12T15:57:24.033Z,11.50
2023-02-12T15:59:53.565Z,8.05
2023-02-12T16:02:28.851Z,8.23
2023-02-12T16:04:57.388Z,14.38
2023-02-12T16:07:26.480Z,10.38
2023-02-12T16:09:54.731Z,8.98
2023-02-12T16:12:24.543Z,15.05
2023-02-12T16:14:54.311Z,7.93
2023-02-12T16:17:25.015Z,11.82
2023-02-12T16:19:53.999Z,10.18
2023-02-12T16:22:23.178Z,8.98
2023-02-12T16:24:52.633Z,9.20
2023-02-12T16:27:22.087Z,12.77
2023-02-12T16:29:54.675Z,11.55
2023-02-12T16:32:41.925Z,12.70
2023-02-12T16:35:09.878Z,13.20
2023-02-12T16:37:37.499Z,21.30
2023-02-12T16:40:08.344Z,14.85
2023-02-12T16:42:36.076Z,16.67
2023-02-12T16:45:42.277Z,18.30
2023-02-12T16:48:12.428Z,14.43
2023-02-12T16:50:48.113Z,23.13
2023-02-12T16:53:32.597Z,17.42
2023-02-12T16:56:01.391Z,18.85
2023-02-12T16:58:28.808Z,17.73
2023-02-12T17:00:57.302Z,18.10
2023-02-12T17:03:25.586Z,17.77
2023-02-12T17:05:53.333Z,19.10
2023-02-12T17:08:21.929Z,18.05
2023-02-12T17:10:49.988Z,19.50
2023-02-12T17:13:18.073Z,18.25
2023-02-12T17:15:49.669Z,16.20
2023-02-12T17:18:18.251Z,17.00
2023-02-12T17:20:49.198Z,20.05
2023-02-12T17:23:16.724Z,19.45
2023-02-12T17:25:44.421Z,16.77
2023-02-12T17:28:11.842Z,22.33
2023-02-12T17:30:39.732Z,18.05
2023-02-12T17:33:07.245Z,17.23
2023-02-12T17:35:34.931Z,20.80
2023-02-12T17:38:02.295Z,17.73
2023-02-12T17:40:30.025Z,18.05
2023-02-12T17:42:57.378Z,18.00
2023-02-12T17:45:25.192Z,18.27
2023-02-12T17:47:52.587Z,19.40
2023-02-12T17:50:20.294Z,17.88
2023-02-12T17:52:48.180Z,14.18
2023-02-12T17:55:15.910Z,20.65
2023-02-12T17:57:43.403Z,17.27
2023-02-12T18:00:12.145Z,16.45
2023-02-12T18:02:39.570Z,19.27
2023-02-12T18:05:07.674Z,25.77
2023-02-12T18:07:35.762Z,17.73
2023-02-12T18:10:04.368Z,20.52
2023-02-12T18:12:32.491Z,21.15
2023-02-12T18:15:01.176Z,19.35
2023-02-12T18:17:28.655Z,13.73
2023-02-12T18:19:56.590Z,17.17
2023-02-12T18:22:24.242Z,14.90
2023-02-12T18:24:51.888Z,17.73
2023-02-12T18:27:19.302Z,17.02
2023-02-12T18:29:47.002Z,23.10
2023-02-12T18:32:14.561Z,20.65
2023-02-12T18:34:43.354Z,16.02
2023-02-12T18:37:12.018Z,18.95
2023-02-12T18:39:40.321Z,18.63
2023-02-12T18:42:07.990Z,18.63
2023-02-12T18:44:35.790Z,16.27
2023-02-12T18:47:03.324Z,21.63
2023-02-12T18:49:31.088Z,23.67
2023-02-12T18:51:58.521Z,22.88
2023-02-12T18:54:26.303Z,21.67
2023-02-12T18:56:53.792Z,22.77
2023-02-12T18:59:21.838Z,21.10
2023-02-12T19:01:50.056Z,24.10
2023-02-12T19:04:19.764Z,22.23
2023-02-12T19:06:48.757Z,20.17
2023-02-12T19:09:17.651Z,25.33
2023-02-12T19:11:45.328Z,22.20
2023-02-12T19:14:13.790Z,22.10
2023-02-12T19:16:41.329Z,19.10
2023-02-12T19:19:09.022Z,24.45
2023-02-12T19:21:36.587Z,19.85
2023-02-12T19:24:04.532Z,20.92
2023-02-12T19:26:33.006Z,23.55
2023-02-12T19:29:01.038Z,19.55
2023-02-12T19:31:29.879Z,26.95
2023-02-12T19:33:58.902Z,23.75
2023-02-12T19:36:27.310Z,19.58
2023-02-12T19:38:55.432Z,26.60
2023-02-12T19:41:23.894Z,23.95
2023-02-12T19:43:55.476Z,25.00
2023-02-12T19:46:22.994Z,24.77
2023-02-12T19:48:53.846Z,23.13
2023-02-12T19:51:21.434Z,21.90
2023-02-12T19:53:49.199Z,23.63
2023-02-12T19:56:17.015Z,16.38
2023-02-12T19:58:45.150Z,22.83
2023-02-12T20:01:14.525Z,27.30
2023-02-12T20:03:42.862Z,25.27
2023-02-12T20:06:11.672Z,27.27
2023-02-12T20:08:40.242Z,27.45
2023-02-12T20:11:09.040Z,21.10
2023-02-12T20:13:37.337Z,27.10
2023-02-12T20:16:05.924Z,26.13
2023-02-12T20:18:33.988Z,26.48
2023-02-12T20:21:02.036Z,23.13
2023-02-12T20:23:29.836Z,21.38
2023-02-12T20:25:57.306Z,30.75
2023-02-12T20:28:25.190Z,26.85
2023-02-12T20:30:52.779Z,24.98
2023-02-12T20:33:20.671Z,26.45
2023-02-12T20:35:54.724Z,29.33
2023-02-12T20:38:22.520Z,27.80
2023-02-12T20:40:50.046Z,33.17
2023-02-12T20:43:17.781Z,36.72
2023-02-12T20:45:45.206Z,27.73
2023-02-12T20:48:13.106Z,26.58
2023-02-12T20:50:40.712Z,26.00
2023-02-12T20:53:08.456Z,23.95
2023-02-12T20:55:35.898Z,28.13
2023-02-12T20:58:03.714Z,28.27
2023-02-12T21:00:31.280Z,20.65
2023-02-12T21:02:58.982Z,28.48
2023-02-12T21:05:26.416Z,27.15
2023-02-12T21:07:54.042Z,28.85
2023-02-12T21:10:21.466Z,30.20
2023-02-12T21:12:49.334Z,34.20
2023-02-12T21:15:16.871Z,22.40
2023-02-12T21:17:44.529Z,25.48
2023-02-12T21:20:11.918Z,23.58
2023-02-12T21:22:39.731Z,24.00
2023-02-12T21:25:07.282Z,27.73
2023-02-12T21:27:34.942Z,23.15
2023-02-12T21:30:02.552Z,23.90
2023-02-12T21:32:31.476Z,31.20
2023-02-12T21:34:58.988Z,25.15
2023-02-12T21:37:26.819Z,28.52
2023-02-12T21:39:54.246Z,26.85
2023-02-12T21:42:22.051Z,27.75
2023-02-12T21:44:49.435Z,21.73
2023-02-12T21:47:17.108Z,25.60
2023-02-12T21:49:44.519Z,25.92
2023-02-12T21:52:12.200Z,22.05
2023-02-12T21:54:39.641Z,27.38
2023-02-12T21:57:07.329Z,26.10
2023-02-12T21:59:34.766Z,27.10
2023-02-12T22:02:02.477Z,32.10
2023-02-12T22:04:29.907Z,30.40
2023-02-12T22:06:57.655Z,24.98
2023-02-12T22:09:25.104Z,24.20
2023-02-12T22:11:52.917Z,24.67
2023-02-12T22:14:20.940Z,26.55
2023-02-12T22:16:51.279Z,24.60
2023-02-12T22:19:28.126Z,26.63
2023-02-12T22:22:04.942Z,24.70
2023-02-12T22:24:34.240Z,24.45
2023-02-12T22:27:04.704Z,23.48
2023-02-12T22:29:32.624Z,26.50
2023-02-12T22:32:00.450Z,32.83
2023-02-12T22:34:27.878Z,26.42
2023-02-12T22:36:55.595Z,31.73
2023-02-12T22:39:22.998Z,25.58
2023-02-12T22:41:51.302Z,27.23
2023-02-12T22:44:21.118Z,26.33
2023-02-12T22:46:49.155Z,24.42
2023-02-12T22:49:16.737Z,22.40
2023-02-12T22:51:44.463Z,24.50
2023-02-12T22:54:15.603Z,30.13
2023-02-12T22:56:43.453Z,29.33
2023-02-12T22:59:12.594Z,25.50
2023-02-12T23:01:40.568Z,25.98
2023-02-12T23:04:11.522Z,21.60
2023-02-12T23:06:39.541Z,23.42
2023-02-12T23:09:06.928Z,25.20
2023-02-12T23:11:34.650Z,22.10
2023-02-12T23:14:02.154Z,24.00
2023-02-12T23:16:29.834Z,21.23
2023-02-12T23:18:58.297Z,23.50
2023-02-12T23:21:26.597Z,16.75
2023-02-12T23:23:54.013Z,21.08
2023-02-12T23:26:22.200Z,19.30
2023-02-12T23:28:49.612Z,20.95
2023-02-12T23:31:17.384Z,25.77
2023-02-12T23:33:44.842Z,18.50
2023-02-12T23:36:12.569Z,20.98
2023-02-12T23:38:40.001Z,24.10
2023-02-12T23:41:07.712Z,26.17
2023-02-12T23:43:35.116Z,20.52
2023-02-12T23:46:02.840Z,20.30
2023-02-12T23:48:30.273Z,21.05
2023-02-12T23:50:58.315Z,24.17
2023-02-12T23:53:25.940Z,22.85
2023-02-12T23:55:53.711Z,23.88
2023-02-12T23:58:21.106Z,18.83
